createdAt,value
2019-03-23T00:00:30.707Z,16.62
2019-03-23T00:02:59.991Z,12.82
2019-03-23T00:05:29.250Z,13.45
2019-03-23T00:07:58.841Z,12.03
2019-03-23T00:10:29.208Z,9.93
2019-03-23T00:12:58.462Z,12.33
2019-03-23T00:15:27.722Z,13.65
2019-03-23T00:17:56.993Z,14.47
2019-03-23T00:20:26.274Z,15.15
2019-03-23T00:22:55.533Z,12.88
2019-03-23T00:25:24.806Z,15.30
2019-03-23T00:27:55.413Z,13.83
2019-03-23T00:30:24.674Z,17.95
2019-03-23T00:32:54.315Z,16.35
2019-03-23T00:35:23.578Z,16.30
2019-03-23T00:37:52.839Z,13.60
2019-03-23T00:40:22.108Z,14.90
2019-03-23T00:42:51.839Z,14.30
2019-03-23T00:45:21.118Z,14.33
2019-03-23T00:47:50.389Z,12.98
2019-03-23T00:50:19.650Z,13.85
2019-03-23T00:52:48.922Z,11.95
2019-03-23T00:55:18.187Z,10.58
2019-03-23T00:57:47.450Z,10.82
2019-03-23T01:00:17.153Z,9.45
2019-03-23T04:02:23.880Z,14.18
2019-03-23T04:04:53.223Z,13.58
2019-03-23T04:07:22.491Z,14.20
2019-03-23T04:09:51.998Z,16.40
2019-03-23T04:12:21.267Z,12.82
2019-03-23T04:14:50.527Z,10.10
2019-03-23T04:17:19.799Z,14.28
2019-03-23T04:19:50.300Z,10.00
2019-03-23T04:22:19.830Z,11.55
2019-03-23T04:24:49.097Z,15.00
2019-03-23T04:27:18.646Z,9.90
2019-03-23T04:29:48.146Z,13.00
2019-03-23T04:32:17.423Z,12.00
2019-03-23T04:34:46.683Z,11.20
2019-03-23T04:37:15.953Z,16.73
2019-03-23T04:39:45.555Z,15.48
2019-03-23T04:42:14.822Z,11.43
2019-03-23T04:44:44.098Z,10.65
2019-03-23T04:47:14.422Z,12.58
2019-03-23T04:49:43.695Z,12.28
2019-03-23T04:52:12.962Z,11.08
2019-03-23T04:54:42.227Z,10.88
2019-03-23T04:57:11.491Z,13.13
2019-03-23T04:59:41.838Z,15.90
2019-03-23T05:02:11.431Z,16.35
2019-03-23T05:04:40.687Z,13.53
2019-03-23T05:07:09.950Z,14.23
2019-03-23T05:09:39.539Z,13.28
2019-03-23T05:12:08.821Z,14.40
2019-03-23T05:14:38.083Z,12.35
2019-03-23T05:17:07.358Z,16.17
2019-03-23T05:19:36.957Z,15.10
2019-03-23T05:22:06.215Z,15.10
2019-03-23T05:24:35.478Z,13.35
2019-03-23T05:27:05.055Z,15.03
2019-03-23T05:29:34.314Z,15.18
2019-03-23T05:32:03.590Z,16.10
2019-03-23T05:34:32.847Z,13.88
2019-03-23T05:37:02.365Z,13.85
2019-03-23T05:39:31.638Z,12.53
2019-03-23T05:42:00.892Z,13.15
2019-03-23T05:44:30.163Z,16.30
2019-03-23T05:46:59.422Z,14.58
2019-03-23T05:49:28.979Z,12.82
2019-03-23T05:51:58.232Z,15.55
2019-03-23T05:54:27.501Z,16.35
2019-03-23T05:56:56.766Z,11.88
2019-03-23T05:59:26.031Z,10.23
2019-03-23T06:01:55.306Z,17.87
2019-03-23T06:04:24.886Z,15.03
2019-03-23T06:06:54.153Z,12.00
2019-03-23T06:09:23.694Z,16.05
2019-03-23T06:11:52.967Z,17.60
2019-03-23T06:14:22.230Z,19.57
2019-03-23T06:16:51.831Z,15.98
2019-03-23T06:19:21.098Z,17.32
2019-03-23T06:21:50.371Z,17.32
2019-03-23T06:24:19.638Z,20.37
2019-03-23T06:26:49.221Z,17.55
2019-03-23T06:29:18.494Z,28.98
2019-03-23T06:31:47.759Z,31.80
2019-03-23T06:34:17.330Z,27.58
2019-03-23T06:36:46.594Z,20.20
2019-03-23T06:39:16.105Z,20.25
2019-03-23T06:41:45.374Z,16.05
2019-03-23T06:44:14.633Z,23.70
2019-03-23T06:46:43.903Z,22.30
2019-03-23T06:49:13.209Z,18.25
2019-03-23T06:51:42.747Z,19.25
2019-03-23T06:54:12.018Z,15.58
2019-03-23T06:56:41.558Z,17.07
2019-03-23T06:59:10.836Z,17.37
2019-03-23T07:01:40.115Z,18.90
2019-03-23T07:04:09.378Z,19.70
2019-03-23T07:06:38.647Z,20.32
2019-03-23T07:09:15.726Z,21.60
2019-03-23T07:11:38.900Z,18.32
2019-03-23T07:14:22.202Z,16.60
2019-03-23T07:16:51.560Z,18.30
2019-03-23T07:19:21.150Z,21.23
2019-03-23T07:21:51.482Z,20.50
2019-03-23T07:24:20.772Z,17.92
2019-03-23T07:26:50.018Z,17.73
2019-03-23T07:29:19.298Z,22.42
2019-03-23T07:37:13.404Z,18.17
2019-03-23T07:39:43.738Z,19.77
2019-03-23T07:42:13.011Z,19.05
2019-03-23T07:44:42.291Z,23.07
2019-03-23T07:47:11.577Z,20.68
2019-03-23T07:49:40.840Z,26.05
2019-03-23T07:52:10.116Z,24.70
2019-03-23T07:54:39.374Z,23.98
2019-03-23T07:57:08.661Z,24.30
2019-03-23T07:59:37.922Z,26.62
2019-03-23T08:02:07.431Z,26.37
2019-03-23T08:04:36.691Z,22.82
2019-03-23T08:07:05.970Z,23.98
2019-03-23T08:09:37.991Z,24.80
2019-03-23T08:12:06.328Z,25.48
2019-03-23T08:14:36.253Z,27.73
2019-03-23T08:17:05.642Z,20.62
2019-03-23T08:19:34.944Z,25.27
2019-03-23T08:22:04.211Z,27.70
2019-03-23T08:24:33.481Z,25.90
2019-03-23T08:27:02.758Z,25.50
2019-03-23T08:29:32.042Z,22.37
2019-03-23T08:32:01.310Z,24.23
2019-03-23T08:34:30.594Z,26.12
2019-03-23T08:37:02.093Z,24.25
2019-03-23T08:39:30.934Z,27.62
2019-03-23T08:42:00.766Z,27.55
2019-03-23T08:44:31.649Z,26.40
2019-03-23T08:47:01.099Z,25.75
2019-03-23T08:49:30.366Z,24.90
2019-03-23T08:51:59.650Z,25.45
2019-03-23T08:54:28.923Z,25.82
2019-03-23T08:56:58.202Z,25.82
2019-03-23T08:59:27.472Z,22.50
2019-03-23T09:01:56.751Z,26.82
2019-03-23T09:04:26.020Z,26.40
2019-03-23T09:06:55.306Z,27.48
2019-03-23T09:09:24.582Z,28.23
2019-03-23T09:11:53.845Z,27.40
2019-03-23T09:14:23.566Z,24.32
2019-03-23T09:16:52.874Z,30.20
2019-03-23T09:19:22.439Z,27.52
2019-03-23T09:21:51.955Z,33.33
2019-03-23T09:24:21.562Z,23.98
2019-03-23T09:26:50.838Z,27.15
2019-03-23T09:29:20.122Z,29.65
2019-03-23T09:31:50.355Z,26.48
2019-03-23T09:34:19.642Z,27.77
2019-03-23T09:36:48.923Z,29.37
2019-03-23T09:39:18.199Z,28.40
2019-03-23T09:41:47.794Z,29.52
2019-03-23T09:44:17.090Z,27.40
2019-03-23T09:46:46.370Z,31.68
2019-03-23T09:49:15.634Z,23.75
2019-03-23T09:51:44.911Z,30.10
2019-03-23T09:54:14.254Z,32.60
2019-03-23T09:56:43.534Z,30.23
2019-03-23T09:59:12.867Z,29.40
2019-03-23T10:01:42.135Z,27.27
2019-03-23T10:04:11.418Z,33.67
2019-03-23T10:06:40.698Z,33.50
2019-03-23T10:09:10.051Z,28.20
2019-03-23T10:11:39.621Z,25.30
2019-03-23T10:14:09.958Z,30.80
2019-03-23T10:16:39.238Z,32.93
2019-03-23T10:19:08.535Z,31.35
2019-03-23T10:21:38.092Z,32.95
2019-03-23T10:24:07.399Z,27.80
2019-03-23T10:26:36.670Z,36.08
2019-03-23T10:29:05.950Z,33.10
2019-03-23T10:31:35.227Z,30.00
2019-03-23T10:34:04.505Z,33.73
2019-03-23T10:36:33.854Z,37.48
2019-03-23T10:39:04.798Z,34.45
2019-03-23T10:41:34.244Z,35.48
2019-03-23T10:44:03.508Z,36.05
2019-03-23T10:46:33.023Z,36.17
2019-03-23T10:49:02.366Z,39.15
2019-03-23T10:51:31.926Z,37.25
2019-03-23T10:54:01.218Z,38.05
2019-03-23T10:56:30.472Z,39.92
2019-03-23T10:58:59.818Z,33.95
2019-03-23T11:01:29.094Z,38.67
2019-03-23T11:03:58.370Z,37.15
2019-03-23T11:06:27.644Z,38.00
2019-03-23T11:08:56.917Z,40.95
2019-03-23T11:11:26.195Z,38.42
2019-03-23T11:13:55.466Z,36.23
2019-03-23T11:16:24.810Z,40.92
2019-03-23T11:18:54.078Z,38.95
2019-03-23T11:21:23.354Z,38.35
2019-03-23T11:23:52.679Z,36.50
2019-03-23T11:26:21.982Z,36.33
2019-03-23T11:28:51.258Z,33.92
2019-03-23T11:31:20.530Z,32.10
2019-03-23T11:33:49.802Z,35.28
2019-03-23T11:36:19.075Z,33.28
2019-03-23T11:38:48.355Z,31.70
2019-03-23T11:41:17.622Z,34.30
2019-03-23T11:43:46.898Z,33.45
2019-03-23T11:46:17.084Z,30.62
2019-03-23T11:48:46.690Z,34.10
2019-03-23T11:51:15.950Z,29.30
2019-03-23T11:53:45.231Z,31.12
2019-03-23T11:56:14.502Z,36.68
2019-03-23T11:58:44.850Z,35.95
2019-03-23T12:01:14.479Z,34.92
2019-03-23T12:03:43.754Z,35.10
2019-03-23T12:06:13.026Z,36.80
2019-03-23T12:08:42.316Z,36.50
2019-03-23T12:11:11.581Z,39.70
2019-03-23T12:13:40.863Z,35.92
2019-03-23T12:16:10.141Z,32.73
2019-03-23T12:18:39.402Z,37.25
2019-03-23T12:21:08.684Z,37.40
2019-03-23T12:23:37.946Z,37.38
2019-03-23T12:26:07.322Z,37.80
2019-03-23T12:28:36.590Z,42.95
2019-03-23T12:31:05.866Z,34.83
2019-03-23T12:33:35.456Z,34.05
2019-03-23T12:36:04.725Z,36.35
2019-03-23T12:38:34.000Z,38.95
2019-03-23T12:41:14.407Z,33.58
2019-03-23T12:43:34.634Z,36.17
2019-03-23T12:46:03.921Z,36.50
2019-03-23T12:48:33.614Z,39.48
2019-03-23T12:51:02.894Z,40.85
2019-03-23T12:53:32.422Z,37.53
2019-03-23T12:56:01.702Z,41.48
2019-03-23T12:58:30.974Z,44.83
2019-03-23T13:01:00.265Z,39.42
2019-03-23T13:03:29.532Z,43.08
2019-03-23T13:05:59.084Z,38.88
2019-03-23T13:08:28.643Z,42.27
2019-03-23T13:10:57.914Z,40.38
2019-03-23T13:13:27.453Z,42.58
2019-03-23T13:15:56.962Z,40.35
2019-03-23T13:18:27.299Z,40.30
2019-03-23T13:20:56.826Z,49.27
2019-03-23T13:23:26.090Z,52.30
2019-03-23T13:25:55.706Z,48.30
2019-03-23T13:28:25.312Z,54.15
2019-03-23T13:30:54.591Z,55.15
2019-03-23T13:33:24.115Z,55.15
2019-03-23T13:35:53.727Z,55.43
2019-03-23T13:38:24.078Z,52.78
2019-03-23T13:40:53.348Z,52.38
2019-03-23T13:43:22.618Z,55.25
2019-03-23T13:45:51.916Z,52.60
2019-03-23T13:48:21.465Z,53.15
2019-03-23T13:50:50.972Z,55.88
2019-03-23T13:53:20.249Z,60.58
2019-03-23T13:55:49.514Z,52.25
2019-03-23T13:58:18.805Z,59.55
2019-03-23T14:00:48.384Z,53.85
2019-03-23T14:03:17.655Z,56.42
2019-03-23T14:05:47.193Z,52.27
2019-03-23T14:08:16.798Z,54.00
2019-03-23T14:10:46.078Z,52.27
2019-03-23T14:13:15.606Z,53.15
2019-03-23T14:15:44.883Z,54.63
2019-03-23T14:18:14.154Z,53.55
2019-03-23T14:20:44.450Z,54.38
2019-03-23T14:23:14.046Z,52.98
2019-03-23T14:25:43.323Z,45.98
2019-03-23T14:28:12.853Z,58.30
2019-03-23T14:30:42.126Z,57.73
2019-03-23T14:33:11.414Z,54.18
2019-03-23T14:35:40.693Z,56.00
2019-03-23T14:38:10.058Z,61.80
2019-03-23T14:40:41.332Z,60.12
2019-03-23T14:43:10.354Z,59.10
2019-03-23T14:45:39.630Z,59.67
2019-03-23T14:48:08.911Z,56.23
2019-03-23T14:50:38.179Z,55.67
2019-03-23T14:53:07.622Z,57.27
2019-03-23T14:55:37.557Z,51.18
2019-03-23T14:58:07.920Z,52.85
2019-03-23T15:00:37.194Z,58.15
2019-03-23T15:03:06.470Z,57.93
2019-03-23T15:05:35.741Z,66.20
2019-03-23T15:08:05.021Z,64.07
2019-03-23T15:10:34.282Z,62.65
2019-03-23T15:13:03.557Z,67.55
2019-03-23T15:15:32.855Z,64.77
2019-03-23T15:18:03.190Z,63.83
2019-03-23T15:20:32.470Z,70.80
2019-03-23T15:23:01.750Z,73.12
2019-03-23T15:25:31.027Z,74.37
2019-03-23T15:28:00.306Z,72.42
2019-03-23T15:30:29.589Z,75.78
2019-03-23T15:32:58.873Z,73.47
2019-03-23T15:35:28.135Z,81.40
2019-03-23T15:37:57.415Z,79.97
2019-03-23T15:40:26.706Z,77.97
2019-03-23T15:42:55.975Z,71.40
2019-03-23T15:45:25.506Z,78.22
2019-03-23T15:47:54.791Z,89.22
2019-03-23T15:50:24.072Z,80.10
2019-03-23T15:52:53.919Z,92.35
2019-03-23T15:55:23.539Z,97.75
2019-03-23T15:57:52.802Z,94.83
2019-03-23T16:00:22.091Z,94.17
2019-03-23T16:02:51.370Z,100.25
2019-03-23T16:05:20.645Z,94.32
2019-03-23T16:07:49.920Z,99.92
2019-03-23T16:10:19.191Z,100.40
2019-03-23T16:12:48.552Z,101.47
2019-03-23T16:15:17.898Z,98.90
2019-03-23T16:17:47.176Z,102.87
2019-03-23T16:20:16.598Z,100.85
2019-03-23T16:22:45.878Z,99.83
2019-03-23T16:25:15.151Z,106.12
2019-03-23T16:27:44.425Z,106.10
2019-03-23T16:30:15.907Z,110.12
2019-03-23T16:32:45.190Z,111.40
2019-03-23T16:35:14.473Z,105.87
2019-03-23T16:37:55.306Z,108.37
2019-03-23T16:40:24.574Z,114.05
2019-03-23T16:42:53.879Z,112.42
2019-03-23T16:45:42.502Z,102.80
2019-03-23T16:48:16.963Z,110.85
2019-03-23T16:53:15.494Z,107.60
2019-03-23T16:55:45.084Z,111.42
2019-03-23T16:58:16.302Z,108.00
2019-03-23T17:00:45.338Z,99.03
2019-03-23T17:03:14.682Z,107.12
2019-03-23T17:05:43.965Z,102.58
2019-03-23T17:08:13.239Z,104.17
2019-03-23T17:10:42.834Z,103.97
2019-03-23T17:13:12.439Z,106.25
2019-03-23T17:15:42.042Z,113.10
2019-03-23T17:18:11.341Z,112.92
2019-03-23T17:20:40.616Z,109.60
2019-03-23T17:23:09.888Z,138.75
2019-03-23T17:25:39.162Z,128.40
2019-03-23T17:28:08.475Z,232.80
2019-03-23T17:30:37.725Z,281.90
2019-03-23T17:33:08.850Z,245.20
2019-03-23T17:35:37.995Z,155.72
2019-03-23T17:38:07.507Z,181.02
2019-03-23T17:40:36.795Z,125.53
2019-03-23T17:43:07.144Z,152.43
2019-03-23T17:45:36.418Z,191.55
2019-03-23T17:48:05.694Z,127.50
2019-03-23T17:50:34.986Z,125.45
2019-03-23T17:53:05.332Z,124.72
2019-03-23T17:55:34.686Z,114.55
2019-03-23T17:58:04.210Z,123.28
2019-03-23T18:00:33.506Z,116.15
2019-03-23T18:03:02.847Z,121.82
2019-03-23T18:05:32.134Z,123.28
2019-03-23T18:08:01.682Z,124.97
2019-03-23T18:10:32.038Z,128.50
2019-03-23T18:13:02.765Z,120.57
2019-03-23T18:15:33.178Z,118.35
2019-03-23T18:18:02.464Z,120.47
2019-03-23T18:20:31.742Z,111.00
2019-03-23T18:23:01.020Z,115.85
2019-03-23T18:25:30.582Z,120.87
2019-03-23T18:28:00.098Z,113.65
2019-03-23T18:30:37.953Z,107.97
2019-03-23T18:33:07.470Z,109.22
2019-03-23T18:35:37.806Z,106.10
2019-03-23T18:38:07.325Z,103.72
2019-03-23T18:40:37.143Z,93.37
2019-03-23T18:43:06.763Z,86.02
2019-03-23T18:45:36.203Z,80.77
2019-03-23T18:48:06.219Z,74.32
2019-03-23T18:50:35.562Z,73.47
2019-03-23T18:53:05.295Z,67.05
2019-03-23T18:55:34.567Z,62.27
2019-03-23T18:58:04.283Z,59.20
2019-03-23T19:00:41.702Z,57.00
2019-03-23T19:03:11.147Z,58.98
2019-03-23T19:05:40.588Z,58.52
2019-03-23T19:08:11.813Z,56.80
2019-03-23T19:10:40.825Z,59.48
2019-03-23T19:13:10.104Z,53.63
2019-03-23T19:15:39.378Z,59.48
2019-03-23T19:18:08.694Z,54.93
2019-03-23T19:20:38.038Z,56.83
2019-03-23T19:23:07.561Z,56.58
2019-03-23T19:25:36.850Z,56.30
2019-03-23T19:28:06.610Z,53.25
2019-03-23T19:30:35.887Z,55.92
2019-03-23T19:33:06.383Z,54.65
2019-03-23T19:35:35.746Z,50.52
2019-03-23T19:38:05.014Z,48.30
2019-03-23T19:40:34.460Z,52.62
2019-03-23T19:43:04.891Z,51.98
2019-03-23T19:45:34.162Z,53.28
2019-03-23T19:48:04.019Z,56.28
2019-03-23T19:50:33.371Z,57.20
2019-03-23T19:53:02.642Z,55.05
2019-03-23T19:55:31.914Z,59.67
2019-03-23T19:58:01.198Z,55.90
2019-03-23T20:00:30.470Z,58.33
2019-03-23T20:03:00.075Z,61.48
2019-03-23T20:05:29.347Z,59.05
2019-03-23T20:07:58.626Z,60.55
2019-03-23T20:10:27.917Z,58.92
2019-03-23T20:12:58.254Z,52.80
2019-03-23T20:15:27.604Z,56.15
2019-03-23T20:17:56.881Z,58.87
2019-03-23T20:20:26.416Z,51.77
2019-03-23T20:22:55.706Z,56.75
2019-03-23T20:25:24.978Z,60.45
2019-03-23T20:27:54.527Z,54.90
2019-03-23T20:30:23.943Z,61.75
2019-03-23T20:32:53.278Z,63.90
2019-03-23T20:35:22.562Z,64.97
2019-03-23T20:37:51.834Z,58.65
2019-03-23T20:40:21.134Z,57.20
2019-03-23T20:42:50.749Z,58.63
2019-03-23T20:45:30.050Z,59.88
2019-03-23T20:47:59.318Z,57.27
2019-03-23T20:50:28.674Z,54.38
2019-03-23T20:52:58.122Z,55.88
2019-03-23T20:55:29.030Z,58.60
2019-03-23T20:57:58.545Z,61.05
2019-03-23T21:00:28.150Z,62.50
2019-03-23T21:02:57.490Z,63.10
2019-03-23T21:05:33.925Z,57.43
2019-03-23T21:07:58.042Z,56.23
2019-03-23T21:10:27.487Z,59.13
2019-03-23T21:12:56.763Z,56.98
2019-03-23T21:15:26.031Z,59.13
2019-03-23T21:17:55.333Z,61.28
2019-03-23T21:20:24.610Z,60.50
2019-03-23T21:22:53.866Z,61.40
2019-03-23T21:25:23.462Z,63.17
2019-03-23T21:27:52.730Z,60.52
2019-03-23T21:30:22.346Z,66.45
2019-03-23T21:32:51.614Z,64.95
2019-03-23T21:35:20.883Z,62.05
2019-03-23T21:37:51.954Z,67.90
2019-03-23T21:40:21.478Z,67.50
2019-03-23T21:42:51.091Z,65.32
2019-03-23T21:45:20.358Z,63.50
2019-03-23T21:47:49.896Z,65.57
2019-03-23T21:50:19.161Z,65.37
2019-03-23T21:52:48.804Z,61.98
2019-03-23T21:55:18.079Z,60.48
2019-03-23T21:57:47.343Z,63.65
2019-03-23T22:00:30.579Z,70.22
2019-03-23T22:03:00.387Z,70.80
2019-03-23T22:05:29.654Z,65.83
2019-03-23T22:07:58.986Z,66.80
2019-03-23T22:10:28.264Z,73.35
2019-03-23T22:12:57.755Z,75.72
2019-03-23T22:15:29.808Z,65.92
2019-03-23T22:17:59.313Z,76.75
2019-03-23T22:20:28.583Z,72.62
2019-03-23T22:22:57.867Z,71.80
2019-03-23T22:25:27.138Z,70.78
2019-03-23T22:27:56.403Z,72.55
2019-03-23T22:30:25.678Z,72.37
2019-03-23T22:32:54.937Z,72.85
2019-03-23T22:35:24.209Z,72.17
2019-03-23T22:37:53.474Z,69.87
2019-03-23T22:40:22.750Z,75.45
2019-03-23T22:42:52.019Z,76.22
2019-03-23T22:45:21.287Z,78.80
2019-03-23T22:47:50.561Z,67.55
2019-03-23T22:50:19.833Z,75.05
2019-03-23T22:52:49.086Z,79.05
2019-03-23T22:55:18.656Z,72.25
2019-03-23T22:57:47.931Z,79.20
2019-03-23T23:00:20.874Z,68.52
2019-03-23T23:02:51.758Z,83.07
2019-03-23T23:05:21.018Z,79.03
2019-03-23T23:07:50.294Z,79.75
2019-03-23T23:10:19.549Z,83.55
2019-03-23T23:12:48.826Z,75.15
2019-03-23T23:15:18.091Z,80.25
2019-03-23T23:17:47.634Z,76.47
2019-03-23T23:20:17.673Z,73.02
2019-03-23T23:22:46.945Z,70.40
2019-03-23T23:25:16.206Z,78.90
2019-03-23T23:27:45.822Z,75.50
2019-03-23T23:30:16.026Z,70.40
2019-03-23T23:32:45.363Z,78.67
2019-03-23T23:35:14.707Z,73.28
2019-03-23T23:37:43.965Z,76.30
2019-03-23T23:40:14.546Z,77.72
2019-03-23T23:42:43.811Z,77.12
2019-03-23T23:45:15.621Z,73.90
2019-03-23T23:47:44.386Z,83.12
2019-03-23T23:50:13.898Z,73.40
2019-03-23T23:52:43.165Z,84.58
2019-03-23T23:55:12.749Z,80.62
2019-03-23T23:57:42.018Z,83.42
